Time;durP1;ratioP1;P1;durP2;ratioP2;P2;SDS_P1;SDS_P2;PMS_P1;PMS_P2;Temp;Humidity;BMP_temperature;BMP_pressure;BME280_temperature;BME280_humidity;BME280_pressure;Samples;Min_cycle;Max_cycle;Signal;HPM_P1;HPM_P2
2022/06/23 00:00:06;;;;;;;14.25;6.40;;;21.30;99.90;;;;;;6283178;28;20067;-81
2022/06/23 00:03:07;;;;;;;19.23;7.60;;;21.20;99.90;;;;;;6283782;28;20116;-79
2022/06/23 00:06:25;;;;;;;11.05;7.43;;;21.20;99.90;;;;;;6281623;28;20056;-81
2022/06/23 00:09:38;;;;;;;15.07;7.13;;;21.00;99.90;;;;;;6257265;28;20053;-80
2022/06/23 00:12:42;;;;;;;8.38;6.70;;;20.90;99.90;;;;;;6275130;28;20292;-81
2022/06/23 00:15:45;;;;;;;10.50;7.95;;;20.70;99.90;;;;;;6275355;28;20053;-81
2022/06/23 00:18:47;;;;;;;15.75;8.18;;;20.60;99.90;;;;;;6274715;28;20045;-81
2022/06/23 00:21:53;;;;;;;13.75;7.63;;;20.70;99.90;;;;;;6275485;28;20055;-81
2022/06/23 00:24:59;;;;;;;13.40;8.70;;;20.80;99.90;;;;;;6275756;28;20051;-81
2022/06/23 00:28:01;;;;;;;8.80;6.80;;;20.90;99.90;;;;;;6274106;28;20045;-81
2022/06/23 00:31:06;;;;;;;9.15;6.38;;;20.90;99.90;;;;;;6273501;28;20510;-80
2022/06/23 00:34:16;;;;;;;11.45;7.55;;;21.00;99.90;;;;;;6274011;28;20049;-81
2022/06/23 00:37:19;;;;;;;8.32;6.30;;;21.00;99.90;;;;;;6274186;28;20047;-81
2022/06/23 00:40:25;;;;;;;15.15;7.07;;;21.10;99.90;;;;;;6273682;28;20132;-80
2022/06/23 00:43:28;;;;;;;15.27;7.22;;;21.10;99.90;;;;;;6274309;28;20060;-81
2022/06/23 00:46:35;;;;;;;11.88;6.63;;;21.00;99.90;;;;;;6274085;28;20055;-81
2022/06/23 00:49:46;;;;;;;16.45;7.40;;;20.90;99.90;;;;;;6273395;28;20528;-80
2022/06/23 00:52:53;;;;;;;13.25;7.18;;;20.80;99.90;;;;;;6274123;28;20045;-81
2022/06/23 00:56:04;;;;;;;8.85;6.25;;;20.80;99.90;;;;;;6274812;28;20134;-81
2022/06/23 00:59:12;;;;;;;9.73;5.75;;;20.70;99.90;;;;;;6275453;28;20051;-82
2022/06/23 01:02:17;;;;;;;17.65;7.45;;;20.80;99.90;;;;;;6274907;28;20071;-80
2022/06/23 01:05:23;;;;;;;9.60;6.80;;;20.80;99.90;;;;;;6274401;28;20041;-81
2022/06/23 01:08:32;;;;;;;19.10;7.38;;;20.90;99.90;;;;;;6272694;28;20060;-82
2022/06/23 01:11:40;;;;;;;13.65;6.10;;;20.80;99.90;;;;;;6264742;28;20056;-82
2022/06/23 01:14:47;;;;;;;10.73;6.55;;;20.70;99.90;;;;;;6276239;28;20195;-80
2022/06/23 01:17:53;;;;;;;12.73;5.85;;;20.60;99.90;;;;;;6276384;28;20044;-81
2022/06/23 01:20:58;;;;;;;15.98;6.65;;;20.60;99.90;;;;;;6277270;28;20040;-81
2022/06/23 01:24:17;;;;;;;13.07;7.05;;;20.50;99.90;;;;;;6277405;28;20056;-81
2022/06/23 01:27:28;;;;;;;14.18;7.65;;;20.40;99.90;;;;;;6277734;28;20040;-81
2022/06/23 01:30:38;;;;;;;16.92;7.85;;;20.30;99.90;;;;;;6275448;28;20498;-81
2022/06/23 01:33:45;;;;;;;18.50;6.90;;;20.30;99.90;;;;;;6275730;28;20041;-81
2022/06/23 01:36:51;;;;;;;17.20;9.32;;;20.20;99.90;;;;;;6275302;28;20053;-81
2022/06/23 01:40:01;;;;;;;20.65;11.25;;;20.20;99.90;;;;;;6275207;28;20055;-82
2022/06/23 01:43:06;;;;;;;19.10;10.52;;;20.10;99.90;;;;;;6279379;28;20528;-80
2022/06/23 01:46:16;;;;;;;27.20;11.43;;;20.10;99.90;;;;;;6280689;28;20048;-81
2022/06/23 01:49:21;;;;;;;35.75;12.38;;;20.00;99.90;;;;;;6279649;28;20051;-82
2022/06/23 01:52:23;;;;;;;19.40;10.82;;;19.90;99.90;;;;;;6279238;28;20049;-83
2022/06/23 01:55:30;;;;;;;24.98;12.45;;;19.90;99.90;;;;;;6280182;28;20513;-81
2022/06/23 01:58:43;;;;;;;29.00;13.23;;;19.90;99.90;;;;;;6280882;28;20122;-81
2022/06/23 02:01:51;;;;;;;24.58;13.10;;;19.90;99.90;;;;;;6281369;28;20291;-80
2022/06/23 02:04:59;;;;;;;23.48;11.00;;;19.80;99.90;;;;;;6280914;28;20055;-81
2022/06/23 02:08:08;;;;;;;22.70;11.13;;;19.80;99.90;;;;;;6279796;28;20045;-82
2022/06/23 02:11:18;;;;;;;21.85;11.98;;;19.70;99.90;;;;;;6273271;28;20049;-80
2022/06/23 02:14:51;;;;;;;26.05;12.27;;;19.70;99.90;;;;;;6255749;28;20124;-82
2022/06/23 02:17:59;;;;;;;24.20;12.20;;;19.60;99.90;;;;;;6254636;28;20048;-81
2022/06/23 02:21:17;;;;;;;22.45;11.80;;;19.60;99.90;;;;;;6255266;28;20068;-80
2022/06/23 02:24:26;;;;;;;25.13;13.13;;;19.50;99.90;;;;;;6255084;28;20044;-82
2022/06/23 02:27:38;;;;;;;16.23;10.52;;;19.50;99.90;;;;;;6257608;28;20052;-81
2022/06/23 02:30:43;;;;;;;18.90;10.65;;;19.50;99.90;;;;;;6255612;28;20071;-79
2022/06/23 02:33:53;;;;;;;26.35;14.05;;;19.40;99.90;;;;;;6256205;28;20064;-81
2022/06/23 02:37:23;;;;;;;21.58;13.63;;;19.30;99.90;;;;;;6256212;28;20038;-82
2022/06/23 02:40:35;;;;;;;21.80;10.75;;;19.20;99.90;;;;;;6254489;28;20499;-81
2022/06/23 02:43:43;;;;;;;18.30;10.27;;;19.20;99.90;;;;;;6253697;28;20051;-81
2022/06/23 02:47:12;;;;;;;20.60;9.95;;;19.10;99.90;;;;;;6253897;28;20060;-81
2022/06/23 02:50:30;;;;;;;17.95;11.45;;;19.20;99.90;;;;;;6253395;28;20054;-82
2022/06/23 02:54:04;;;;;;;16.70;11.32;;;19.10;99.90;;;;;;6252407;28;20049;-81
2022/06/23 02:57:29;;;;;;;14.25;9.50;;;19.00;99.90;;;;;;6249944;28;20041;-81
2022/06/23 03:00:34;;;;;;;17.02;10.30;;;19.00;99.90;;;;;;6253299;28;20072;-81
2022/06/23 03:03:41;;;;;;;15.50;10.70;;;18.90;99.90;;;;;;6253339;28;20053;-82
2022/06/23 03:06:53;;;;;;;20.42;10.40;;;18.80;99.90;;;;;;6253577;28;20057;-80
2022/06/23 03:10:04;;;;;;;16.23;10.40;;;18.80;99.90;;;;;;6253385;28;20050;-79
2022/06/23 03:13:09;;;;;;;18.02;10.40;;;18.70;99.90;;;;;;6268159;28;20037;-81
2022/06/23 03:16:19;;;;;;;13.95;9.02;;;18.70;99.90;;;;;;6277324;28;20045;-81
2022/06/23 03:19:28;;;;;;;16.42;10.40;;;18.60;99.90;;;;;;6276942;28;20049;-81
2022/06/23 03:22:35;;;;;;;13.30;8.65;;;18.60;99.90;;;;;;6276654;28;20049;-81
2022/06/23 03:25:43;;;;;;;12.95;8.57;;;18.60;99.90;;;;;;6278053;28;20052;-82
2022/06/23 03:28:49;;;;;;;12.55;9.55;;;18.70;99.90;;;;;;6278365;28;20049;-81
2022/06/23 03:32:02;;;;;;;13.85;8.48;;;18.60;99.90;;;;;;6279523;28;20052;-83
2022/06/23 03:35:14;;;;;;;13.23;8.70;;;18.70;99.90;;;;;;6282534;28;20064;-82
2022/06/23 03:41:36;;;;;;;11.85;7.85;;;18.70;99.90;;;;;;6282271;28;20547;-82
2022/06/23 03:41:53;;;;;;;13.18;7.05;;;18.70;99.90;;;;;;6280713;28;20049;-82
2022/06/23 03:45:00;;;;;;;10.93;7.15;;;18.80;99.90;;;;;;6281141;28;20065;-82
2022/06/23 03:48:07;;;;;;;12.50;9.02;;;18.80;99.90;;;;;;6281417;28;20045;-81
2022/06/23 03:51:15;;;;;;;13.32;7.75;;;18.90;99.90;;;;;;6283021;28;20136;-82
2022/06/23 03:54:23;;;;;;;12.18;7.72;;;18.80;99.90;;;;;;6283522;28;20045;-82
2022/06/23 03:57:29;;;;;;;11.45;7.15;;;18.90;99.90;;;;;;6283934;28;20047;-82
2022/06/23 04:00:35;;;;;;;10.98;5.53;;;18.90;99.90;;;;;;6283173;28;20040;-82
2022/06/23 04:03:42;;;;;;;11.60;5.75;;;19.00;99.90;;;;;;6285205;28;20413;-82
2022/06/23 04:06:45;;;;;;;9.23;6.05;;;19.00;99.90;;;;;;6283833;28;20056;-82
2022/06/23 04:09:49;;;;;;;12.32;6.25;;;19.10;99.90;;;;;;6283651;28;20048;-83
2022/06/23 04:12:55;;;;;;;11.55;7.55;;;19.40;99.90;;;;;;6273051;28;20418;-80
2022/06/23 04:16:08;;;;;;;7.40;5.38;;;19.90;99.80;;;;;;6260558;28;20487;-80
2022/06/23 04:19:17;;;;;;;9.20;5.40;;;20.60;98.60;;;;;;6264514;28;20052;-80
2022/06/23 04:22:24;;;;;;;9.95;4.45;;;21.40;97.70;;;;;;6251257;28;20526;-80
2022/06/23 04:25:46;;;;;;;15.52;4.97;;;22.10;96.50;;;;;;6251843;28;20128;-80
2022/06/23 04:28:51;;;;;;;6.88;3.65;;;22.10;96.20;;;;;;6251419;28;20054;-81
2022/06/23 04:31:58;;;;;;;8.68;3.63;;;22.60;95.70;;;;;;6251018;28;20049;-80
2022/06/23 04:35:10;;;;;;;10.57;4.88;;;23.20;94.70;;;;;;6250752;28;20128;-81
2022/06/23 04:38:19;;;;;;;6.72;3.60;;;23.60;93.90;;;;;;6248651;28;20068;-82
2022/06/23 04:41:29;;;;;;;11.90;4.10;;;24.40;92.80;;;;;;6272215;28;20124;-82
2022/06/23 04:44:34;;;;;;;6.72;2.75;;;25.60;91.00;;;;;;6274233;28;20630;-81
2022/06/23 04:47:36;;;;;;;6.82;2.88;;;26.70;88.50;;;;;;6274856;28;20064;-80
2022/06/23 04:50:45;;;;;;;11.13;3.05;;;27.60;85.10;;;;;;6273530;28;20045;-83
2022/06/23 04:53:57;;;;;;;14.30;4.00;;;28.60;81.30;;;;;;6274429;28;20049;-83
2022/06/23 04:57:07;;;;;;;7.57;2.90;;;29.60;77.40;;;;;;6275215;28;20147;-83
2022/06/23 05:00:20;;;;;;;12.88;3.20;;;30.50;73.00;;;;;;6273195;28;20163;-83
2022/06/23 05:03:32;;;;;;;4.05;2.28;;;31.00;70.20;;;;;;6274597;28;20053;-81
2022/06/23 05:06:38;;;;;;;5.97;2.33;;;31.80;67.80;;;;;;6275937;28;20425;-84
2022/06/23 05:09:42;;;;;;;7.55;1.92;;;32.70;65.00;;;;;;6274208;28;20045;-83
2022/06/23 05:12:50;;;;;;;9.73;2.45;;;33.30;62.50;;;;;;6268933;28;20041;-83
2022/06/23 05:16:01;;;;;;;8.57;2.08;;;34.00;60.20;;;;;;6253610;28;20053;-83
2022/06/23 05:19:09;;;;;;;6.90;1.95;;;34.80;57.80;;;;;;6259180;28;20052;-82
2022/06/23 05:22:23;;;;;;;5.75;1.50;;;36.20;54.20;;;;;;6262146;28;20045;-83
2022/06/23 05:25:35;;;;;;;10.98;2.50;;;37.30;51.00;;;;;;6262029;28;20494;-82
2022/06/23 05:28:39;;;;;;;7.03;1.73;;;38.30;48.10;;;;;;6261438;28;20052;-83
2022/06/23 05:31:41;;;;;;;10.52;2.08;;;38.70;46.50;;;;;;6260326;28;20049;-82
2022/06/23 05:34:50;;;;;;;9.15;1.60;;;38.60;46.20;;;;;;6260832;28;20072;-82
2022/06/23 05:37:56;;;;;;;4.75;1.83;;;38.40;45.40;;;;;;6259007;28;20053;-82
2022/06/23 05:41:02;;;;;;;9.90;1.42;;;38.50;45.10;;;;;;6285984;28;20049;-82
2022/06/23 05:44:16;;;;;;;6.75;2.10;;;39.00;44.50;;;;;;6287205;28;20170;-83
2022/06/23 05:47:20;;;;;;;12.65;2.28;;;39.90;42.90;;;;;;6287976;28;20180;-83
2022/06/23 05:50:27;;;;;;;5.47;1.48;;;40.90;41.00;;;;;;6284842;28;20495;-82
2022/06/23 05:53:34;;;;;;;4.72;1.23;;;41.70;39.70;;;;;;6286923;28;20045;-81
2022/06/23 05:56:42;;;;;;;8.57;1.30;;;42.50;38.50;;;;;;6285435;28;20045;-82
2022/06/23 06:00:07;;;;;;;8.68;1.63;;;43.30;37.10;;;;;;6286032;28;20049;-82
2022/06/23 06:03:16;;;;;;;7.15;2.00;;;43.90;36.50;;;;;;6285122;28;20056;-84
2022/06/23 06:06:18;;;;;;;7.60;1.65;;;44.50;35.30;;;;;;6285852;28;20178;-83
2022/06/23 06:09:40;;;;;;;7.75;1.83;;;45.00;35.40;;;;;;6284932;28;20045;-82
2022/06/23 06:12:44;;;;;;;3.47;1.15;;;45.40;34.10;;;;;;6289257;28;20049;-82
2022/06/23 06:15:50;;;;;;;8.82;1.17;;;45.80;33.40;;;;;;6270509;28;20049;-82
2022/06/23 06:18:53;;;;;;;7.30;1.38;;;46.20;32.80;;;;;;6260981;28;20055;-82
2022/06/23 06:21:58;;;;;;;11.93;1.90;;;46.50;32.20;;;;;;6260320;28;20045;-82
2022/06/23 06:25:03;;;;;;;8.68;1.45;;;46.80;31.80;;;;;;6262223;28;20045;-82
2022/06/23 06:28:15;;;;;;;6.53;1.27;;;46.90;31.50;;;;;;6260294;28;20041;-83
2022/06/23 06:31:22;;;;;;;12.38;2.20;;;47.00;31.30;;;;;;6260537;28;20491;-80
2022/06/23 06:34:31;;;;;;;9.48;1.63;;;47.20;31.10;;;;;;6261473;28;20049;-82
2022/06/23 06:37:36;;;;;;;5.93;1.30;;;47.40;31.00;;;;;;6260376;28;20049;-83
2022/06/23 06:40:39;;;;;;;7.07;1.52;;;47.50;30.70;;;;;;6278042;28;20056;-81
2022/06/23 06:43:41;;;;;;;8.90;2.83;;;47.10;30.70;;;;;;6288684;28;20049;-83
2022/06/23 06:46:45;;;;;;;7.95;1.30;;;46.80;31.10;;;;;;6287233;28;20048;-82
2022/06/23 06:49:47;;;;;;;9.90;1.45;;;46.80;31.20;;;;;;6287633;28;20113;-82
2022/06/23 06:52:51;;;;;;;5.80;1.17;;;46.80;31.00;;;;;;6286771;28;20045;-81
2022/06/23 06:55:56;;;;;;;3.55;1.00;;;47.00;30.90;;;;;;6287516;28;20053;-82
2022/06/23 06:59:02;;;;;;;10.27;1.95;;;47.20;30.70;;;;;;6287612;28;20132;-82
2022/06/23 07:02:13;;;;;;;4.22;1.05;;;47.20;30.60;;;;;;6288077;28;20132;-82
2022/06/23 07:05:23;;;;;;;7.60;1.25;;;47.40;30.40;;;;;;6287444;28;20112;-82
2022/06/23 07:08:29;;;;;;;12.50;2.85;;;47.50;30.30;;;;;;6287281;28;20059;-82
2022/06/23 07:11:40;;;;;;;7.00;1.05;;;47.60;30.10;;;;;;6286605;28;20404;-82
2022/06/23 07:14:49;;;;;;;8.23;1.58;;;47.80;30.00;;;;;;6280316;28;20051;-83
2022/06/23 07:17:56;;;;;;;7.82;1.45;;;47.70;29.90;;;;;;6263925;28;20060;-81
2022/06/23 07:21:03;;;;;;;7.82;2.40;;;47.50;30.20;;;;;;6264739;28;20055;-82
2022/06/23 07:24:12;;;;;;;8.65;1.70;;;47.50;30.00;;;;;;6262583;28;20430;-82
2022/06/23 07:27:22;;;;;;;6.57;1.63;;;47.30;29.90;;;;;;6262771;28;20073;-82
2022/06/23 07:30:30;;;;;;;6.45;1.63;;;47.20;30.20;;;;;;6261499;28;20045;-82
2022/06/23 07:33:41;;;;;;;8.88;1.25;;;47.50;30.00;;;;;;6261734;28;20425;-81
2022/06/23 07:36:50;;;;;;;7.15;1.10;;;47.50;29.80;;;;;;6262620;28;20056;-82
2022/06/23 07:39:57;;;;;;;4.10;1.25;;;47.60;30.50;;;;;;6272494;28;20057;-82
2022/06/23 07:43:06;;;;;;;5.32;1.50;;;47.70;29.60;;;;;;6288945;28;20136;-82
2022/06/23 07:46:08;;;;;;;9.93;1.58;;;47.40;29.80;;;;;;6287787;28;20045;-81
2022/06/23 07:49:11;;;;;;;4.75;1.23;;;46.90;29.80;;;;;;6287380;28;20053;-82
2022/06/23 07:52:16;;;;;;;9.63;1.02;;;46.70;29.90;;;;;;6287799;28;20041;-82
2022/06/23 07:55:23;;;;;;;12.02;1.35;;;47.00;29.90;;;;;;6290635;28;20052;-81
2022/06/23 07:58:30;;;;;;;9.75;1.40;;;47.40;29.80;;;;;;6241521;28;20076;-80
2022/06/23 08:01:36;;;;;;;9.57;1.10;;;47.70;29.40;;;;;;6278988;28;20052;-79
2022/06/23 08:04:52;;;;;;;7.00;0.82;;;47.20;29.20;;;;;;6276038;28;20048;-79
2022/06/23 08:07:55;;;;;;;3.97;1.25;;;43.40;31.50;;;;;;6282342;28;20053;-81
2022/06/23 08:14:20;;;;;;;5.72;1.00;;;38.20;37.10;;;;;;6238808;28;20125;-81
2022/06/23 08:17:21;;;;;;;8.10;0.85;;;36.40;39.70;;;;;;6271040;28;20057;-81
2022/06/23 08:20:26;;;;;;;7.13;1.45;;;35.50;41.40;;;;;;6256708;28;20050;-78
2022/06/23 08:23:34;;;;;;;7.20;1.70;;;34.90;42.40;;;;;;6260796;28;20053;-81
2022/06/23 08:26:38;;;;;;;7.35;1.55;;;34.60;43.10;;;;;;6261410;28;20104;-82
2022/06/23 08:29:44;;;;;;;5.00;1.17;;;33.90;43.90;;;;;;6257698;28;20068;-77
2022/06/23 08:32:49;;;;;;;5.72;1.00;;;33.40;45.10;;;;;;6255432;28;20059;-79
2022/06/23 08:35:55;;;;;;;6.95;1.15;;;33.20;45.30;;;;;;6255653;28;20056;-80
2022/06/23 08:39:04;;;;;;;7.90;1.40;;;32.80;46.20;;;;;;6254143;28;20060;-81
2022/06/23 08:42:14;;;;;;;7.03;1.20;;;32.60;47.00;;;;;;6278516;28;20048;-83
2022/06/23 08:45:24;;;;;;;12.10;1.38;;;32.40;47.60;;;;;;6280924;28;20136;-82
2022/06/23 08:48:36;;;;;;;3.85;1.17;;;32.10;48.20;;;;;;6280772;28;20060;-82
2022/06/23 08:51:49;;;;;;;4.57;1.17;;;32.00;48.10;;;;;;6287135;28;20041;-79
2022/06/23 08:55:00;;;;;;;10.30;1.77;;;32.20;48.60;;;;;;6288747;28;20048;-79
2022/06/23 08:58:06;;;;;;;12.90;1.73;;;32.30;48.50;;;;;;6286813;28;20041;-78
2022/06/23 09:01:13;;;;;;;4.07;1.38;;;32.30;48.60;;;;;;6288405;28;20145;-78
2022/06/23 09:04:22;;;;;;;6.53;1.48;;;32.30;48.60;;;;;;6287599;28;20051;-81
2022/06/23 09:07:45;;;;;;;6.68;1.48;;;32.60;47.80;;;;;;6286074;28;20055;-82
2022/06/23 09:10:57;;;;;;;9.40;1.40;;;32.90;47.20;;;;;;6284762;28;20044;-80
2022/06/23 09:14:14;;;;;;;11.55;1.70;;;33.10;46.70;;;;;;6284456;28;20049;-81
2022/06/23 09:17:44;;;;;;;4.15;1.15;;;33.30;47.20;;;;;;6276649;28;20045;-83
2022/06/23 09:21:08;;;;;;;12.15;2.45;;;33.50;47.30;;;;;;6257794;28;20045;-83
2022/06/23 09:24:29;;;;;;;4.05;1.77;;;33.60;47.40;;;;;;6257575;28;20406;-83
2022/06/23 09:28:01;;;;;;;9.20;1.40;;;33.40;47.40;;;;;;6257264;28;20084;-83
2022/06/23 09:31:19;;;;;;;6.70;1.80;;;33.20;48.00;;;;;;6257362;28;20041;-83
2022/06/23 09:34:30;;;;;;;;;;;33.20;48.50;;;;;;6258503;28;20045;-80
2022/06/23 09:37:48;;;;;;;10.05;1.30;;;33.40;48.30;;;;;;6257728;28;19932;-81
2022/06/23 09:41:01;;;;;;;10.85;1.73;;;33.50;48.50;;;;;;6255503;28;20053;-80
2022/06/23 09:44:25;;;;;;;13.18;1.63;;;33.20;48.90;;;;;;6256779;28;20075;-80
2022/06/23 09:47:50;;;;;;;8.98;1.50;;;32.80;49.90;;;;;;6257506;28;20054;-79
2022/06/23 09:51:18;;;;;;;7.32;1.83;;;33.10;50.00;;;;;;6257347;28;20045;-80
2022/06/23 09:54:37;;;;;;;8.45;1.75;;;33.40;49.80;;;;;;6256744;28;20439;-80
2022/06/23 09:58:15;;;;;;;9.13;2.33;;;32.80;50.40;;;;;;6256852;28;20050;-79
2022/06/23 10:01:27;;;;;;;10.18;1.88;;;32.90;51.30;;;;;;6256972;28;20411;-80
2022/06/23 10:04:49;;;;;;;13.05;1.70;;;33.30;50.40;;;;;;6256783;28;20047;-81
2022/06/23 10:08:03;;;;;;;5.68;1.48;;;33.40;50.10;;;;;;6255607;28;20057;-80
2022/06/23 10:11:41;;;;;;;11.07;1.75;;;33.00;50.90;;;;;;6256483;28;20045;-79
2022/06/23 10:14:55;;;;;;;12.02;1.77;;;33.80;50.10;;;;;;6255614;28;20048;-79
2022/06/23 10:18:12;;;;;;;17.60;2.13;;;34.80;48.50;;;;;;6218689;28;1060778;-81
2022/06/23 10:21:25;;;;;;;8.27;1.98;;;35.60;46.60;;;;;;6259686;28;20046;-79
2022/06/23 10:24:48;;;;;;;7.93;1.58;;;35.50;46.50;;;;;;6257213;28;20049;-80
2022/06/23 10:28:12;;;;;;;10.52;1.95;;;35.40;46.40;;;;;;6255649;28;20168;-80
2022/06/23 10:31:27;;;;;;;9.25;1.30;;;34.80;47.30;;;;;;6256604;28;20046;-81
2022/06/23 10:34:41;;;;;;;8.38;2.10;;;34.20;47.20;;;;;;6256116;28;20072;-79
2022/06/23 10:38:02;;;;;;;9.25;2.42;;;34.00;48.60;;;;;;6255967;28;20046;-81
2022/06/23 10:41:50;;;;;;;6.13;1.48;;;34.30;47.70;;;;;;6277214;28;20045;-80
2022/06/23 10:45:26;;;;;;;4.43;1.42;;;34.20;47.20;;;;;;6157000;28;20044;-80
2022/06/23 10:49:16;;;;;;;4.82;1.83;;;34.00;47.80;;;;;;6147646;28;20045;-80
2022/06/23 10:52:34;;;;;;;8.13;1.88;;;34.20;48.40;;;;;;6236325;28;20041;-79
2022/06/23 10:55:50;;;;;;;7.82;2.13;;;34.10;47.70;;;;;;6280895;28;20049;-79
2022/06/23 10:59:21;;;;;;;9.88;1.55;;;34.20;47.70;;;;;;6281604;28;20049;-80
2022/06/23 11:03:00;;;;;;;7.05;1.13;;;34.50;46.80;;;;;;6281341;28;20056;-80
2022/06/23 11:06:08;;;;;;;;;;;35.10;45.90;;;;;;6229693;28;20041;-80
2022/06/23 11:09:31;;;;;;;8.60;1.40;;;35.50;44.30;;;;;;6280323;28;20390;-80
2022/06/23 11:12:53;;;;;;;8.60;1.75;;;35.00;44.70;;;;;;6279004;28;20051;-80
2022/06/23 11:16:04;;;;;;;8.50;1.70;;;34.80;45.20;;;;;;6281350;28;20052;-80
2022/06/23 11:19:27;;;;;;;5.60;1.15;;;35.00;45.40;;;;;;6271174;28;20538;-79
2022/06/23 11:22:38;;;;;;;4.50;1.27;;;35.00;44.50;;;;;;6256065;28;20041;-80
2022/06/23 11:25:51;;;;;;;10.05;1.73;;;35.30;44.60;;;;;;6255485;28;20055;-80
2022/06/23 11:29:12;;;;;;;7.15;1.52;;;35.80;44.30;;;;;;6254910;28;20558;-79
2022/06/23 11:32:26;;;;;;;7.88;1.70;;;35.70;44.20;;;;;;6255781;28;20045;-81
2022/06/23 11:36:02;;;;;;;8.35;1.40;;;35.90;44.00;;;;;;6258204;28;20059;-83
2022/06/23 11:39:24;;;;;;;8.00;1.27;;;36.00;43.20;;;;;;6211209;28;20057;-83
2022/06/23 11:42:43;;;;;;;8.85;1.63;;;35.60;43.80;;;;;;6258645;28;20049;-82
2022/06/23 11:45:55;;;;;;;10.80;1.38;;;35.50;44.70;;;;;;6258092;28;20045;-80
2022/06/23 11:49:34;;;;;;;12.23;1.52;;;36.10;44.20;;;;;;6257704;28;20051;-81
2022/06/23 11:52:53;;;;;;;14.85;2.17;;;36.70;42.90;;;;;;6226897;28;20159;-81
2022/06/23 11:55:59;;;;;;;8.18;1.75;;;36.60;42.20;;;;;;6256841;28;20080;-83
2022/06/23 11:59:19;;;;;;;7.97;1.55;;;36.40;43.20;;;;;;6255976;28;20056;-84
2022/06/23 12:02:20;;;;;;;8.13;1.20;;;36.90;42.50;;;;;;6253435;28;20568;-84
2022/06/23 12:05:32;;;;;;;7.97;1.55;;;37.20;42.10;;;;;;6255376;28;20055;-85
2022/06/23 12:08:47;;;;;;;9.75;1.10;;;37.50;42.10;;;;;;6255708;28;20045;-82
2022/06/23 12:11:50;;;;;;;7.78;1.63;;;37.30;41.20;;;;;;6255008;28;20388;-84
2022/06/23 12:14:53;;;;;;;12.15;1.50;;;36.70;41.80;;;;;;6258837;28;20529;-80
2022/06/23 12:17:59;;;;;;;6.80;1.23;;;36.20;42.50;;;;;;6257423;28;20499;-84
2022/06/23 12:21:08;;;;;;;9.27;2.45;;;35.70;42.60;;;;;;6252687;28;20049;-82
2022/06/23 12:24:17;;;;;;;8.40;1.52;;;35.60;42.10;;;;;;6255611;28;20513;-82
2022/06/23 12:27:26;;;;;;;17.02;2.00;;;35.60;43.30;;;;;;6258424;28;20090;-79
2022/06/23 12:30:35;;;;;;;6.97;1.70;;;35.90;42.80;;;;;;6257255;28;20045;-80
2022/06/23 12:33:43;;;;;;;10.68;1.42;;;36.20;42.40;;;;;;6256830;28;20112;-79
2022/06/23 12:36:55;;;;;;;10.25;1.88;;;36.30;41.90;;;;;;6257923;28;20422;-82
2022/06/23 12:40:02;;;;;;;9.32;1.65;;;36.00;42.20;;;;;;6257965;28;20053;-80
2022/06/23 12:43:09;;;;;;;;;;;36.00;42.90;;;;;;6257711;28;20052;-80
2022/06/23 12:46:20;;;;;;;10.98;1.10;;;35.70;42.80;;;;;;6256566;28;19928;-80
2022/06/23 12:49:39;;;;;;;6.28;1.20;;;35.70;43.00;;;;;;6259384;28;20053;-77
2022/06/23 12:52:53;;;;;;;4.20;1.30;;;36.20;41.60;;;;;;6254670;28;20422;-78
2022/06/23 12:56:09;;;;;;;7.43;1.00;;;36.40;42.00;;;;;;6252033;28;20509;-79
2022/06/23 12:59:18;;;;;;;7.78;1.45;;;36.50;41.80;;;;;;6251013;28;20060;-79
2022/06/23 13:02:28;;;;;;;5.07;1.27;;;36.50;41.60;;;;;;6252604;28;20045;-81
2022/06/23 13:05:33;;;;;;;10.50;1.60;;;36.40;41.60;;;;;;6253407;28;20059;-80
2022/06/23 13:08:43;;;;;;;16.38;3.20;;;36.30;42.30;;;;;;6255783;28;20056;-80
2022/06/23 13:11:56;;;;;;;10.23;1.55;;;36.00;42.10;;;;;;6254240;28;20157;-80
2022/06/23 13:15:05;;;;;;;13.23;2.28;;;35.80;42.20;;;;;;6254243;28;20049;-80
2022/06/23 13:18:18;;;;;;;6.18;1.55;;;35.90;42.50;;;;;;6251729;28;20427;-78
2022/06/23 13:21:25;;;;;;;10.77;2.13;;;36.50;42.00;;;;;;6252772;28;20052;-80
2022/06/23 13:24:27;;;;;;;9.25;1.40;;;36.60;41.40;;;;;;6255334;28;20124;-77
2022/06/23 13:27:31;;;;;;;10.50;1.60;;;36.30;41.10;;;;;;6253128;28;20055;-81
2022/06/23 13:30:42;;;;;;;8.13;1.33;;;35.80;41.80;;;;;;6253099;28;20482;-77
2022/06/23 13:33:49;;;;;;;8.15;1.63;;;36.00;42.00;;;;;;6252318;28;20056;-81
2022/06/23 13:36:55;;;;;;;13.57;1.85;;;36.40;41.40;;;;;;6254643;28;20481;-78
2022/06/23 13:40:07;;;;;;;9.25;1.42;;;36.50;41.10;;;;;;6257699;28;20053;-82
2022/06/23 13:43:13;;;;;;;5.40;1.15;;;36.50;41.40;;;;;;6259547;28;20060;-79
2022/06/23 13:46:21;;;;;;;11.40;1.40;;;36.60;40.70;;;;;;6256867;28;20049;-80
2022/06/23 13:49:27;;;;;;;7.35;1.80;;;36.40;40.70;;;;;;6255211;28;20519;-79
2022/06/23 13:52:35;;;;;;;4.63;1.35;;;36.10;41.00;;;;;;6257187;28;20053;-79
2022/06/23 13:55:44;;;;;;;14.15;1.80;;;36.30;41.20;;;;;;6256381;28;20049;-79
2022/06/23 13:58:53;;;;;;;4.35;1.10;;;36.50;40.50;;;;;;6258558;28;20146;-79
2022/06/23 14:02:01;;;;;;;10.55;1.58;;;36.90;40.30;;;;;;6259318;28;20096;-80
2022/06/23 14:05:13;;;;;;;8.15;1.40;;;37.30;39.70;;;;;;6256970;28;20045;-81
2022/06/23 14:08:19;;;;;;;11.32;1.75;;;37.20;39.50;;;;;;6254882;28;20045;-78
2022/06/23 14:11:28;;;;;;;8.70;1.35;;;37.00;39.70;;;;;;6256040;28;20060;-78
2022/06/23 14:14:35;;;;;;;7.30;1.30;;;36.40;39.90;;;;;;6255590;28;20049;-79
2022/06/23 14:17:48;;;;;;;9.95;1.98;;;36.00;40.90;;;;;;6261317;28;20056;-82
2022/06/23 14:20:57;;;;;;;9.88;1.40;;;36.00;40.50;;;;;;6260932;28;20052;-79
2022/06/23 14:24:09;;;;;;;7.47;0.95;;;35.80;40.70;;;;;;6263109;28;20049;-80
2022/06/23 14:27:19;;;;;;;7.55;1.20;;;35.70;41.10;;;;;;6285304;28;20441;-79
2022/06/23 14:30:25;;;;;;;8.85;1.48;;;35.80;41.40;;;;;;6278935;28;20123;-80
2022/06/23 14:33:36;;;;;;;6.75;1.35;;;35.70;41.10;;;;;;6278989;28;20053;-79
2022/06/23 14:36:44;;;;;;;10.15;1.45;;;35.50;41.40;;;;;;6278799;28;20107;-80
2022/06/23 14:39:48;;;;;;;10.60;1.35;;;35.10;41.10;;;;;;6279772;28;20048;-83
2022/06/23 14:43:12;;;;;;;5.32;1.40;;;35.00;41.70;;;;;;6279934;28;20045;-83
2022/06/23 14:46:25;;;;;;;15.50;2.25;;;35.00;41.70;;;;;;6278945;28;20049;-84
2022/06/23 14:49:47;;;;;;;11.88;1.85;;;35.10;41.70;;;;;;6278470;28;20052;-81
2022/06/23 14:52:55;;;;;;;7.38;1.65;;;35.40;41.20;;;;;;6278867;28;20517;-80
2022/06/23 14:56:19;;;;;;;8.82;1.70;;;35.40;41.20;;;;;;6279145;28;20091;-83
2022/06/23 14:59:30;;;;;;;4.63;1.20;;;35.60;41.30;;;;;;6264007;28;20046;-81
2022/06/23 15:02:42;;;;;;;7.50;0.95;;;35.70;40.70;;;;;;6252675;28;20041;-79
2022/06/23 15:05:55;;;;;;;11.20;1.00;;;35.70;40.80;;;;;;6253239;28;20054;-78
2022/06/23 15:09:03;;;;;;;10.50;1.77;;;36.10;40.30;;;;;;6252472;28;20124;-82
2022/06/23 15:12:14;;;;;;;11.00;1.70;;;36.30;39.40;;;;;;6254677;28;20053;-81
2022/06/23 15:15:24;;;;;;;5.00;1.00;;;36.10;39.20;;;;;;6254285;28;20064;-81
2022/06/23 15:18:32;;;;;;;9.48;1.25;;;35.60;39.40;;;;;;6254420;28;20045;-81
2022/06/23 15:25:08;;;;;;;12.25;2.28;;;35.20;40.00;;;;;;6253967;28;20042;-80
2022/06/23 15:28:17;;;;;;;14.20;2.03;;;34.80;40.30;;;;;;6254903;28;20870;-81
2022/06/23 15:31:24;;;;;;;6.50;1.17;;;34.60;41.20;;;;;;6254827;28;20049;-81
2022/06/23 15:34:39;;;;;;;9.05;1.45;;;34.50;40.80;;;;;;6254846;28;20049;-80
2022/06/23 15:37:50;;;;;;;6.60;1.00;;;34.50;41.10;;;;;;6255315;28;20061;-81
2022/06/23 15:41:03;;;;;;;8.27;1.52;;;34.20;41.10;;;;;;6275218;28;20369;-81
2022/06/23 15:44:20;;;;;;;8.90;1.35;;;33.80;41.60;;;;;;6281416;28;20053;-81
2022/06/23 15:47:30;;;;;;;13.70;1.73;;;33.70;41.80;;;;;;6280936;28;20053;-81
2022/06/23 15:50:39;;;;;;;8.05;1.48;;;33.50;42.30;;;;;;6280612;28;20349;-80
2022/06/23 15:53:45;;;;;;;15.77;1.67;;;33.40;42.50;;;;;;6280836;28;20532;-80
2022/06/23 15:56:52;;;;;;;9.73;1.37;;;33.30;43.10;;;;;;6281111;28;20064;-81
2022/06/23 16:00:01;;;;;;;8.13;1.33;;;33.30;43.10;;;;;;6280571;28;20053;-81
2022/06/23 16:03:17;;;;;;;11.60;1.65;;;33.20;43.20;;;;;;6279450;28;20392;-80
2022/06/23 16:06:26;;;;;;;10.10;1.48;;;32.90;43.60;;;;;;6255220;28;20444;-81
2022/06/23 16:09:37;;;;;;;7.57;1.75;;;32.90;43.90;;;;;;6254865;28;20053;-81
2022/06/23 16:12:42;;;;;;;6.78;1.40;;;32.80;43.90;;;;;;6256537;28;20049;-81
2022/06/23 16:15:47;;;;;;;16.85;1.67;;;32.70;44.30;;;;;;6256263;28;20410;-80
2022/06/23 16:18:52;;;;;;;5.95;1.25;;;32.70;44.50;;;;;;6254250;28;20060;-81
2022/06/23 16:22:03;;;;;;;10.90;1.75;;;32.90;44.20;;;;;;6252119;28;20051;-81
2022/06/23 16:25:18;;;;;;;13.00;1.83;;;33.00;44.20;;;;;;6252286;28;20041;-79
2022/06/23 16:28:35;;;;;;;9.52;1.30;;;33.20;43.60;;;;;;6254597;28;20383;-80
2022/06/23 16:31:47;;;;;;;9.23;1.60;;;33.30;43.30;;;;;;6255147;28;20642;-80
2022/06/23 16:34:54;;;;;;;12.85;1.50;;;33.40;42.90;;;;;;6254348;28;20049;-83